createdAt,value
2022-09-15T00:02:11.762Z,74.10
2022-09-15T00:04:38.513Z,74.15
2022-09-15T00:07:05.333Z,74.01
2022-09-15T00:09:31.842Z,73.85
2022-09-15T00:11:58.361Z,73.99
2022-09-15T00:14:24.837Z,73.67
2022-09-15T00:16:51.334Z,72.56
2022-09-15T00:19:17.834Z,72.78
2022-09-15T00:21:44.296Z,72.69
2022-09-15T00:24:11.015Z,72.57
2022-09-15T00:26:38.334Z,72.56
2022-09-15T00:29:05.159Z,73.17
2022-09-15T00:31:33.209Z,72.56
2022-09-15T00:34:04.948Z,72.14
2022-09-15T00:36:31.964Z,72.66
2022-09-15T00:38:58.842Z,72.29
2022-09-15T00:41:26.015Z,72.56
2022-09-15T00:43:54.388Z,73.14
2022-09-15T00:46:42.138Z,73.19
2022-09-15T00:49:30.964Z,73.63
2022-09-15T00:52:07.239Z,73.71
2022-09-15T00:54:51.487Z,74.09
2022-09-15T00:57:25.328Z,73.58
2022-09-15T00:59:53.235Z,73.71
2022-09-15T01:02:23.844Z,73.88
2022-09-15T01:04:58.111Z,73.90
2022-09-15T01:07:32.212Z,75.15
2022-09-15T01:10:08.433Z,75.25
2022-09-15T01:12:35.625Z,75.29
2022-09-15T01:15:02.161Z,75.72
2022-09-15T01:17:34.479Z,75.52
2022-09-15T01:20:19.756Z,75.04
2022-09-15T01:23:24.133Z,75.00
2022-09-15T01:26:25.785Z,74.40
2022-09-15T01:29:23.239Z,74.69
2022-09-15T01:32:43.892Z,74.74
2022-09-15T01:35:13.041Z,75.05
2022-09-15T01:37:47.380Z,75.24
2022-09-15T01:40:17.327Z,75.63
2022-09-15T01:42:45.143Z,74.76
2022-09-15T01:45:21.852Z,74.03
2022-09-15T01:47:52.352Z,73.80
2022-09-15T01:50:44.053Z,73.10
2022-09-15T01:53:16.918Z,73.20
2022-09-15T01:55:51.522Z,73.51
2022-09-15T01:58:17.997Z,73.13
2022-09-15T02:00:49.591Z,72.97
2022-09-15T02:03:18.514Z,73.17
2022-09-15T02:05:52.717Z,73.27
2022-09-15T02:08:29.090Z,72.97
2022-09-15T02:11:13.800Z,72.24
2022-09-15T02:14:10.562Z,72.33
2022-09-15T02:16:39.413Z,71.81
2022-09-15T02:19:16.963Z,71.85
2022-09-15T02:22:17.586Z,71.48
2022-09-15T02:25:16.548Z,71.83
2022-09-15T02:27:47.311Z,72.00
2022-09-15T02:30:16.706Z,71.54
2022-09-15T02:32:56.094Z,71.46
2022-09-15T02:35:25.935Z,71.24
2022-09-15T02:37:53.213Z,71.43
2022-09-15T02:40:20.083Z,71.26
2022-09-15T02:42:58.570Z,71.86
2022-09-15T02:45:25.613Z,71.26
2022-09-15T02:47:52.216Z,71.73
2022-09-15T02:50:19.100Z,71.26
2022-09-15T02:52:45.819Z,71.79
2022-09-15T02:55:12.689Z,71.57
2022-09-15T02:57:39.161Z,71.50
2022-09-15T03:00:13.211Z,71.37
2022-09-15T03:02:45.442Z,71.07
2022-09-15T03:05:14.288Z,71.56
2022-09-15T03:07:41.188Z,71.45
2022-09-15T03:10:10.829Z,71.28
2022-09-15T03:12:45.820Z,71.41
2022-09-15T03:15:14.165Z,71.22
2022-09-15T03:17:42.465Z,71.37
2022-09-15T03:20:10.984Z,71.73
2022-09-15T03:22:38.370Z,71.98
2022-09-15T03:25:05.611Z,71.72
2022-09-15T03:27:33.344Z,71.30
2022-09-15T03:30:00.061Z,71.67
2022-09-15T03:32:26.518Z,71.42
2022-09-15T03:34:57.685Z,71.66
2022-09-15T03:37:25.069Z,71.33
2022-09-15T03:39:51.567Z,71.67
2022-09-15T03:42:18.081Z,72.02
2022-09-15T03:44:44.550Z,72.08
2022-09-15T03:47:11.167Z,72.13
2022-09-15T03:49:37.628Z,71.90
2022-09-15T03:52:04.224Z,72.24
2022-09-15T03:54:31.092Z,72.65
2022-09-15T03:56:57.830Z,73.02
2022-09-15T03:59:24.342Z,72.82
2022-09-15T04:01:50.945Z,73.65
2022-09-15T04:04:17.570Z,73.94
2022-09-15T04:06:44.879Z,74.84
2022-09-15T04:09:11.450Z,75.54
2022-09-15T04:11:39.391Z,75.95
2022-09-15T04:14:05.901Z,76.87
2022-09-15T04:16:32.579Z,77.72
2022-09-15T04:18:59.313Z,77.46
2022-09-15T04:21:26.726Z,77.73
2022-09-15T04:23:54.144Z,77.68
2022-09-15T04:26:25.280Z,78.57
2022-09-15T04:28:51.762Z,78.97
2022-09-15T04:31:18.672Z,79.28
2022-09-15T04:33:45.473Z,78.82
2022-09-15T04:36:19.322Z,79.78
2022-09-15T04:38:46.006Z,80.27
2022-09-15T04:41:13.295Z,79.74
2022-09-15T04:43:39.935Z,80.30
2022-09-15T04:46:06.940Z,80.02
2022-09-15T04:48:33.773Z,80.53
2022-09-15T04:51:06.094Z,79.71
2022-09-15T04:53:32.708Z,79.22
2022-09-15T04:56:04.673Z,79.35
2022-09-15T04:58:31.784Z,79.30
2022-09-15T05:00:58.321Z,79.15
2022-09-15T05:03:25.200Z,79.36
2022-09-15T05:05:51.679Z,79.08
2022-09-15T05:08:18.141Z,79.27
2022-09-15T05:10:44.580Z,78.52
2022-09-15T05:13:11.036Z,78.57
2022-09-15T05:15:37.505Z,78.40
2022-09-15T05:18:04.113Z,78.09
2022-09-15T05:20:30.569Z,78.08
2022-09-15T05:22:57.030Z,78.29
2022-09-15T05:25:23.582Z,77.82
2022-09-15T05:27:50.068Z,78.00
2022-09-15T05:30:36.290Z,77.41
2022-09-15T05:33:04.834Z,77.35
2022-09-15T05:35:31.297Z,76.90
2022-09-15T05:37:57.755Z,77.07
2022-09-15T05:40:24.293Z,77.02
2022-09-15T05:42:50.752Z,77.60
2022-09-15T05:45:17.384Z,76.98
2022-09-15T05:47:43.830Z,76.61
2022-09-15T05:50:11.225Z,76.51
2022-09-15T05:52:38.130Z,76.48
2022-09-15T05:55:04.991Z,76.18
2022-09-15T05:57:32.165Z,75.29
2022-09-15T05:59:58.621Z,75.39
2022-09-15T06:02:25.150Z,75.15
2022-09-15T06:04:51.776Z,75.20
2022-09-15T06:07:18.254Z,74.41
2022-09-15T06:09:45.221Z,74.76
2022-09-15T06:12:11.718Z,74.66
2022-09-15T06:14:38.199Z,74.75
2022-09-15T06:17:04.734Z,75.00
2022-09-15T06:19:31.183Z,75.19
2022-09-15T06:21:57.634Z,74.70
2022-09-15T06:24:24.351Z,75.24
2022-09-15T06:26:50.906Z,75.40
2022-09-15T06:29:17.424Z,74.98
2022-09-15T06:31:43.977Z,74.91
2022-09-15T06:34:11.745Z,75.65
2022-09-15T06:36:39.086Z,74.87
2022-09-15T06:39:05.744Z,74.70
2022-09-15T06:41:58.455Z,75.63
2022-09-15T06:44:19.068Z,75.17
2022-09-15T06:46:45.696Z,74.72
2022-09-15T06:49:12.294Z,74.85
2022-09-15T06:51:38.872Z,74.14
2022-09-15T06:54:06.200Z,75.00
2022-09-15T06:56:37.216Z,75.30
2022-09-15T06:59:04.691Z,74.20
2022-09-15T07:01:32.523Z,75.04
2022-09-15T07:04:01.482Z,74.88
2022-09-15T07:06:29.569Z,74.88
2022-09-15T07:08:57.100Z,75.12
2022-09-15T07:11:23.927Z,75.27
2022-09-15T07:13:51.050Z,74.92
2022-09-15T07:16:19.365Z,74.48
2022-09-15T07:18:47.061Z,74.46
2022-09-15T07:21:21.507Z,72.98
2022-09-15T07:23:48.920Z,73.76
2022-09-15T07:26:16.792Z,73.40
2022-09-15T07:28:45.780Z,73.09
2022-09-15T07:31:15.687Z,72.69
2022-09-15T07:33:42.438Z,73.61
2022-09-15T07:36:09.472Z,73.48
2022-09-15T07:38:39.462Z,73.66
2022-09-15T07:41:08.129Z,74.00
2022-09-15T07:43:34.596Z,73.75
2022-09-15T07:46:02.208Z,73.40
2022-09-15T07:48:29.431Z,73.37
2022-09-15T07:50:56.211Z,73.83
2022-09-15T07:53:23.053Z,74.19
2022-09-15T07:55:53.387Z,74.15
2022-09-15T07:58:20.313Z,73.16
2022-09-15T08:00:50.196Z,72.62
2022-09-15T08:03:16.939Z,73.47
2022-09-15T08:05:45.647Z,73.76
2022-09-15T08:08:12.590Z,73.50
2022-09-15T08:10:41.226Z,73.91
2022-09-15T08:13:08.168Z,73.52
2022-09-15T08:15:37.915Z,73.82
2022-09-15T08:18:05.986Z,73.66
2022-09-15T08:20:32.883Z,74.37
2022-09-15T08:22:59.554Z,74.46
2022-09-15T08:25:26.016Z,73.76
2022-09-15T08:27:54.191Z,73.64
2022-09-15T08:30:21.283Z,73.98
2022-09-15T08:32:48.136Z,73.59
2022-09-15T08:35:16.665Z,72.63
2022-09-15T08:37:43.203Z,73.12
2022-09-15T08:40:36.010Z,73.00
2022-09-15T08:43:12.826Z,73.26
2022-09-15T08:45:52.659Z,73.60
2022-09-15T08:48:24.779Z,73.83
2022-09-15T08:50:54.758Z,73.03
2022-09-15T08:53:30.533Z,72.11
2022-09-15T08:56:00.244Z,71.81
2022-09-15T08:58:34.397Z,72.00
2022-09-15T09:01:19.432Z,70.90
2022-09-15T09:04:03.989Z,71.50
2022-09-15T09:07:05.958Z,71.69
2022-09-15T09:10:11.656Z,71.50
2022-09-15T09:13:00.574Z,71.38
2022-09-15T09:15:39.575Z,71.65
2022-09-15T09:18:34.811Z,71.59
2022-09-15T09:21:07.347Z,70.81
2022-09-15T09:23:41.698Z,70.20
2022-09-15T09:26:12.045Z,70.19
2022-09-15T09:28:51.250Z,70.60
2022-09-15T09:31:21.769Z,70.30
2022-09-15T09:34:15.997Z,70.46
2022-09-15T09:36:42.824Z,70.52
2022-09-15T09:39:15.189Z,69.85
2022-09-15T09:41:42.426Z,69.61
2022-09-15T09:44:15.108Z,70.74
2022-09-15T09:46:42.326Z,70.05
2022-09-15T09:49:25.226Z,70.90
2022-09-15T09:51:55.149Z,70.07
2022-09-15T09:54:25.127Z,70.57
2022-09-15T09:56:53.659Z,68.81
2022-09-15T09:59:46.166Z,69.26
2022-09-15T10:02:15.842Z,68.85
2022-09-15T10:04:45.422Z,68.58
2022-09-15T10:07:13.950Z,68.01
2022-09-15T10:09:58.197Z,68.62
2022-09-15T10:12:30.826Z,69.77
2022-09-15T10:15:01.195Z,70.75
2022-09-15T10:17:45.656Z,72.24
2022-09-15T10:20:32.637Z,72.57
2022-09-15T10:23:24.065Z,72.90
2022-09-15T10:25:59.416Z,73.31
2022-09-15T10:28:27.130Z,73.53
2022-09-15T10:31:08.347Z,76.53
2022-09-15T10:33:40.338Z,76.34
2022-09-15T10:36:13.080Z,75.44
2022-09-15T10:38:44.446Z,75.36
2022-09-15T10:41:27.487Z,75.22
2022-09-15T10:44:24.483Z,75.63
2022-09-15T10:47:16.173Z,75.56
2022-09-15T10:50:27.679Z,74.52
2022-09-15T10:53:16.778Z,75.68
2022-09-15T10:55:57.800Z,74.93
2022-09-15T10:58:39.933Z,73.93
2022-09-15T11:01:29.957Z,72.92
2022-09-15T11:04:23.624Z,73.27
2022-09-15T11:07:29.638Z,73.41
2022-09-15T11:10:03.235Z,72.99
2022-09-15T11:12:48.264Z,72.81
2022-09-15T11:15:28.030Z,72.25
2022-09-15T11:18:11.185Z,73.02
2022-09-15T11:21:15.639Z,73.59
2022-09-15T11:24:03.766Z,73.92
2022-09-15T11:26:45.610Z,74.85
2022-09-15T11:29:24.798Z,75.10
2022-09-15T11:32:06.584Z,75.13
2022-09-15T11:34:44.667Z,74.79
2022-09-15T11:37:14.689Z,74.55
2022-09-15T11:40:13.646Z,74.10
2022-09-15T11:42:49.124Z,74.20
2022-09-15T11:45:23.212Z,73.78
2022-09-15T11:47:58.782Z,74.47
2022-09-15T11:50:33.359Z,73.80
2022-09-15T11:53:19.405Z,73.70
2022-09-15T11:55:59.419Z,74.12
2022-09-15T11:58:40.961Z,73.50
2022-09-15T12:01:10.564Z,74.47
2022-09-15T12:03:55.654Z,73.40
2022-09-15T12:09:31.904Z,75.73
2022-09-15T12:12:04.399Z,77.23
2022-09-15T12:14:41.345Z,77.57
2022-09-15T12:17:32.455Z,77.75
2022-09-15T12:20:17.534Z,78.49
2022-09-15T12:22:54.857Z,78.18
2022-09-15T12:25:33.923Z,78.30
2022-09-15T12:28:26.853Z,78.00
2022-09-15T12:31:25.537Z,78.67
2022-09-15T12:33:59.646Z,78.07
2022-09-15T12:36:43.340Z,78.21
2022-09-15T12:39:30.441Z,79.13
2022-09-15T12:42:07.087Z,79.76
2022-09-15T12:44:56.061Z,79.68
2022-09-15T12:47:40.757Z,78.72
2022-09-15T12:50:16.393Z,78.79
2022-09-15T12:52:57.171Z,78.78
2022-09-15T12:55:36.576Z,78.98
2022-09-15T12:58:15.854Z,78.75
2022-09-15T13:01:06.836Z,78.90
2022-09-15T13:06:10.107Z,79.30
2022-09-15T13:08:36.517Z,79.21
2022-09-15T13:11:42.982Z,79.50
2022-09-15T13:14:18.790Z,79.99
2022-09-15T13:16:52.660Z,79.13
2022-09-15T13:19:42.358Z,78.92
2022-09-15T13:22:11.616Z,78.30
2022-09-15T13:24:57.793Z,78.06
2022-09-15T13:27:54.937Z,77.53
2022-09-15T13:30:21.470Z,77.68
2022-09-15T13:33:02.666Z,77.42
2022-09-15T13:35:52.132Z,76.73
2022-09-15T13:38:37.142Z,77.12
2022-09-15T13:41:22.321Z,76.69
2022-09-15T13:44:20.827Z,76.80
2022-09-15T13:47:19.949Z,77.49
2022-09-15T13:50:11.651Z,76.56
2022-09-15T13:52:59.213Z,76.33
2022-09-15T13:55:28.519Z,75.48
2022-09-15T14:00:56.357Z,75.93
2022-09-15T14:03:41.701Z,75.98
2022-09-15T14:06:30.365Z,75.92
2022-09-15T14:09:01.244Z,76.18
2022-09-15T14:11:32.586Z,75.65
2022-09-15T14:14:00.649Z,75.60
2022-09-15T14:16:27.821Z,75.92
2022-09-15T14:18:57.588Z,76.53
2022-09-15T14:21:27.059Z,74.83
2022-09-15T14:23:56.635Z,74.89
2022-09-15T14:26:32.569Z,75.57
2022-09-15T14:29:06.800Z,74.54
2022-09-15T14:31:39.309Z,74.83
2022-09-15T14:34:15.693Z,74.20
2022-09-15T14:36:42.504Z,74.07
2022-09-15T14:39:11.660Z,73.95
2022-09-15T14:41:42.082Z,73.85
2022-09-15T14:45:54.865Z,74.33
2022-09-15T14:47:22.408Z,74.82
2022-09-15T14:49:49.382Z,74.19
2022-09-15T14:52:34.076Z,74.44
2022-09-15T14:55:03.756Z,74.67
2022-09-15T14:57:34.394Z,74.58
2022-09-15T15:00:07.163Z,74.08
2022-09-15T15:02:50.653Z,73.38
2022-09-15T15:05:33.308Z,73.85
2022-09-15T15:08:04.008Z,73.94
2022-09-15T15:10:35.622Z,74.12
2022-09-15T15:13:16.733Z,73.70
2022-09-15T15:15:44.423Z,73.58
2022-09-15T15:18:36.077Z,73.90
2022-09-15T15:21:03.597Z,72.96
2022-09-15T15:23:31.964Z,73.48
2022-09-15T15:26:24.545Z,73.24
2022-09-15T15:28:51.316Z,73.82
2022-09-15T15:31:23.433Z,73.27
2022-09-15T15:34:05.366Z,73.01
2022-09-15T15:36:34.416Z,72.47
2022-09-15T15:39:04.443Z,72.64
2022-09-15T15:41:40.747Z,73.51
2022-09-15T15:44:26.385Z,72.26
2022-09-15T15:46:55.849Z,72.64
2022-09-15T15:49:29.161Z,72.65
2022-09-15T15:52:00.081Z,71.60
2022-09-15T15:54:27.247Z,71.90
2022-09-15T15:56:54.005Z,70.76
2022-09-15T15:59:20.983Z,72.11
2022-09-15T16:01:51.468Z,71.32
2022-09-15T16:04:18.377Z,70.94
2022-09-15T16:06:48.184Z,70.80
2022-09-15T16:09:17.429Z,71.41
2022-09-15T16:11:43.933Z,71.29
2022-09-15T16:14:14.250Z,70.78
2022-09-15T16:16:40.989Z,69.86
2022-09-15T16:19:08.446Z,70.28
2022-09-15T16:21:41.634Z,70.36
2022-09-15T16:24:15.866Z,70.47
2022-09-15T16:26:43.257Z,70.47
2022-09-15T16:29:10.054Z,69.04
2022-09-15T16:31:37.178Z,66.18
2022-09-15T16:34:04.039Z,65.31
2022-09-15T16:36:34.551Z,63.85
2022-09-15T16:39:01.075Z,65.41
2022-09-15T16:41:27.760Z,66.53
2022-09-15T16:43:55.879Z,68.20
2022-09-15T16:46:22.451Z,67.37
2022-09-15T16:48:49.037Z,65.70
2022-09-15T16:51:29.768Z,66.67
2022-09-15T16:53:57.366Z,67.84
2022-09-15T16:56:23.844Z,66.60
2022-09-15T16:58:54.777Z,67.17
2022-09-15T17:01:25.186Z,67.58
2022-09-15T17:03:51.719Z,67.21
2022-09-15T17:06:18.757Z,68.86
2022-09-15T17:08:45.507Z,70.32
2022-09-15T17:11:16.720Z,69.78
2022-09-15T17:13:44.823Z,68.52
2022-09-15T17:16:13.875Z,69.25
2022-09-15T17:18:40.788Z,71.01
2022-09-15T17:21:10.753Z,71.03
2022-09-15T17:23:39.048Z,71.62
2022-09-15T17:26:10.941Z,71.31
2022-09-15T17:28:37.776Z,71.82
2022-09-15T17:31:15.141Z,71.78
2022-09-15T17:33:42.280Z,72.07
2022-09-15T17:36:08.910Z,72.02
2022-09-15T17:38:35.380Z,72.06
2022-09-15T17:41:01.901Z,72.14
2022-09-15T17:43:30.714Z,72.59
2022-09-15T17:45:57.624Z,73.39
2022-09-15T17:48:24.759Z,73.33
2022-09-15T17:50:52.627Z,74.01
2022-09-15T17:53:26.614Z,74.52
2022-09-15T17:55:54.654Z,74.61
2022-09-15T17:58:22.054Z,75.21
2022-09-15T18:00:49.152Z,74.83
2022-09-15T18:03:30.793Z,74.88
2022-09-15T18:05:59.937Z,74.95
2022-09-15T18:08:27.354Z,74.57
2022-09-15T18:10:54.428Z,74.92
2022-09-15T18:13:23.596Z,74.38
2022-09-15T18:15:50.539Z,74.71
2022-09-15T18:18:20.336Z,74.41
2022-09-15T18:20:47.397Z,74.64
2022-09-15T18:23:16.783Z,73.86
2022-09-15T18:25:44.115Z,73.94
2022-09-15T18:28:10.789Z,73.66
2022-09-15T18:30:43.171Z,73.68
2022-09-15T18:33:15.479Z,73.76
2022-09-15T18:35:43.425Z,73.79
2022-09-15T18:38:10.764Z,73.94
2022-09-15T18:40:37.267Z,74.37
2022-09-15T18:43:04.199Z,74.22
2022-09-15T18:45:30.632Z,74.49
2022-09-15T18:47:57.121Z,74.08
2022-09-15T18:50:25.231Z,74.35
2022-09-15T18:52:51.734Z,74.75
2022-09-15T18:55:22.028Z,75.16
2022-09-15T18:57:48.980Z,75.33
2022-09-15T19:00:19.168Z,75.66
2022-09-15T19:02:46.164Z,75.73
2022-09-15T19:05:16.776Z,75.62
2022-09-15T19:07:44.665Z,75.71
2022-09-15T19:10:13.078Z,76.08
2022-09-15T19:12:39.965Z,76.35
2022-09-15T19:15:12.092Z,76.52
2022-09-15T19:17:39.641Z,76.37
2022-09-15T19:20:08.519Z,75.79
2022-09-15T19:22:35.870Z,76.17
2022-09-15T19:25:02.501Z,76.48
2022-09-15T19:27:29.177Z,76.29
2022-09-15T19:29:55.819Z,76.67
2022-09-15T19:32:22.320Z,76.13
2022-09-15T19:34:48.927Z,75.87
2022-09-15T19:37:19.016Z,76.49
2022-09-15T19:39:46.222Z,76.56
2022-09-15T19:44:41.746Z,76.26
2022-09-15T19:47:08.776Z,76.49
2022-09-15T19:49:36.647Z,76.61
2022-09-15T19:52:06.202Z,76.13
2022-09-15T19:54:34.328Z,76.71
2022-09-15T19:57:01.273Z,76.82
2022-09-15T19:59:31.392Z,76.44
2022-09-15T20:01:58.980Z,76.16
2022-09-15T20:04:25.486Z,76.34
2022-09-15T20:06:52.019Z,76.35
2022-09-15T20:09:18.808Z,76.10
2022-09-15T20:11:45.509Z,75.81
2022-09-15T20:14:12.044Z,75.80
2022-09-15T20:16:38.577Z,76.02
2022-09-15T20:19:06.124Z,76.25
2022-09-15T20:21:49.927Z,76.59
2022-09-15T20:24:18.615Z,76.28
2022-09-15T20:26:45.097Z,76.56
2022-09-15T20:29:11.991Z,76.73
2022-09-15T20:31:38.568Z,77.01
2022-09-15T20:34:05.255Z,77.21
2022-09-15T20:36:35.459Z,77.25
2022-09-15T20:39:04.910Z,76.98
2022-09-15T20:41:34.539Z,76.74
2022-09-15T20:44:01.149Z,76.59
2022-09-15T20:46:29.364Z,76.14
2022-09-15T20:48:55.848Z,76.35
2022-09-15T20:51:24.464Z,76.67
2022-09-15T20:53:53.990Z,76.64
2022-09-15T20:56:24.891Z,76.50
2022-09-15T20:58:55.953Z,76.92
2022-09-15T21:01:25.557Z,76.60
2022-09-15T21:03:52.169Z,77.00
2022-09-15T21:06:21.164Z,76.70
2022-09-15T21:08:48.823Z,76.76
2022-09-15T21:11:16.904Z,76.58
2022-09-15T21:13:44.201Z,76.29
2022-09-15T21:16:14.120Z,75.60
2022-09-15T21:18:42.066Z,74.80
2022-09-15T21:21:19.288Z,74.95
2022-09-15T21:23:48.420Z,75.14
2022-09-15T21:26:20.633Z,74.97
2022-09-15T21:28:48.709Z,74.72
2022-09-15T21:31:24.158Z,74.67
2022-09-15T21:33:52.928Z,74.83
2022-09-15T21:36:30.663Z,74.85
2022-09-15T21:38:58.815Z,74.56
2022-09-15T21:41:29.706Z,74.47
2022-09-15T21:43:58.471Z,74.79
2022-09-15T21:46:27.834Z,75.14
2022-09-15T21:48:56.198Z,76.17
2022-09-15T21:51:24.899Z,75.66
2022-09-15T21:53:56.459Z,75.52
2022-09-15T21:56:23.954Z,74.96
2022-09-15T21:58:50.430Z,75.18
2022-09-15T22:01:19.764Z,74.73
2022-09-15T22:03:51.716Z,74.89
2022-09-15T22:06:19.553Z,74.70
2022-09-15T22:08:46.750Z,74.66
2022-09-15T22:11:13.832Z,75.06
2022-09-15T22:13:42.882Z,74.99
2022-09-15T22:16:18.014Z,75.16
2022-09-15T22:18:45.406Z,74.95
2022-09-15T22:21:15.007Z,75.05
2022-09-15T22:23:43.035Z,75.16
2022-09-15T22:26:21.633Z,75.81
2022-09-15T22:28:48.700Z,76.66
2022-09-15T22:31:16.817Z,77.08
2022-09-15T22:33:44.186Z,77.15
2022-09-15T22:36:16.313Z,77.27
2022-09-15T22:38:43.386Z,77.24
2022-09-15T22:41:12.463Z,77.07
2022-09-15T22:43:40.468Z,77.10
2022-09-15T22:46:07.769Z,76.90
2022-09-15T22:48:37.491Z,77.44
2022-09-15T22:51:06.626Z,77.23
2022-09-15T22:53:33.460Z,76.68
2022-09-15T22:56:21.443Z,76.48
2022-09-15T22:58:49.381Z,76.54
2022-09-15T23:01:19.859Z,76.77
2022-09-15T23:03:57.855Z,77.18
2022-09-15T23:06:26.878Z,76.42
2022-09-15T23:08:55.725Z,76.24
2022-09-15T23:11:22.748Z,76.08
2022-09-15T23:13:49.307Z,76.03
2022-09-15T23:16:16.424Z,76.05
2022-09-15T23:18:43.090Z,76.46
2022-09-15T23:21:11.219Z,76.16
2022-09-15T23:23:40.033Z,76.58
2022-09-15T23:26:09.894Z,76.91
2022-09-15T23:28:37.111Z,77.24
2022-09-15T23:31:03.597Z,77.69
2022-09-15T23:33:31.601Z,77.85
2022-09-15T23:36:07.314Z,77.84
2022-09-15T23:38:39.173Z,77.68
2022-09-15T23:41:06.794Z,77.47
2022-09-15T23:43:33.724Z,77.48
2022-09-15T23:46:02.191Z,77.55
2022-09-15T23:48:29.433Z,77.53
2022-09-15T23:50:55.921Z,77.36
2022-09-15T23:53:22.458Z,76.94
2022-09-15T23:55:48.967Z,76.56
2022-09-15T23:58:15.645Z,76.48
